createdAt,value
2022-12-26T00:02:14.814Z,6.55
2022-12-26T00:08:18.269Z,7.57
2022-12-26T00:14:23.002Z,4.85
2022-12-26T00:20:26.405Z,5.90
2022-12-26T00:26:30.545Z,5.05
2022-12-26T00:32:35.327Z,5.55
2022-12-26T00:38:39.085Z,6.13
2022-12-26T00:44:42.696Z,6.00
2022-12-26T00:50:47.525Z,5.32
2022-12-26T00:56:50.977Z,5.72
2022-12-26T01:02:54.491Z,4.88
2022-12-26T01:09:00.269Z,7.47
2022-12-26T01:15:03.724Z,5.03
2022-12-26T01:21:08.768Z,4.60
2022-12-26T01:27:13.597Z,4.82
2022-12-26T01:33:17.208Z,3.00
2022-12-26T01:39:20.584Z,3.95
2022-12-26T01:45:27.510Z,3.65
2022-12-26T01:51:33.501Z,3.38
2022-12-26T01:57:39.991Z,3.30
2022-12-26T02:04:04.678Z,2.90
2022-12-26T02:10:09.489Z,4.30
2022-12-26T02:16:14.327Z,4.38
2022-12-26T02:22:38.255Z,3.67
2022-12-26T02:28:56.632Z,4.05
2022-12-26T02:35:06.900Z,5.05
2022-12-26T02:41:15.484Z,2.88
2022-12-26T02:47:24.263Z,2.33
2022-12-26T02:53:51.294Z,2.03
2022-12-26T03:00:14.865Z,3.08
2022-12-26T03:06:37.822Z,3.40
2022-12-26T03:13:02.057Z,2.95
2022-12-26T03:19:08.136Z,4.00
2022-12-26T03:25:30.883Z,2.13
2022-12-26T03:31:35.720Z,3.65
2022-12-26T03:37:50.181Z,4.60
2022-12-26T03:44:18.435Z,2.97
2022-12-26T03:50:44.352Z,2.85
2022-12-26T03:57:06.902Z,2.70
2022-12-26T04:03:30.691Z,3.22
2022-12-26T04:09:59.818Z,3.47
2022-12-26T04:16:23.654Z,4.00
2022-12-26T04:22:50.403Z,3.15
2022-12-26T04:29:13.145Z,3.47
2022-12-26T04:35:37.482Z,3.45
2022-12-26T04:41:59.212Z,2.47
2022-12-26T04:48:21.969Z,2.88
2022-12-26T04:54:25.604Z,4.13
2022-12-26T05:00:29.831Z,2.80
2022-12-26T05:06:52.469Z,3.92
2022-12-26T05:12:56.418Z,3.50
2022-12-26T05:19:17.636Z,3.90
2022-12-26T05:25:42.736Z,2.75
2022-12-26T05:31:46.463Z,1.80
2022-12-26T05:37:49.878Z,3.05
2022-12-26T05:43:54.771Z,3.75
2022-12-26T05:49:58.320Z,2.83
2022-12-26T05:56:04.608Z,2.60
2022-12-26T06:02:09.887Z,4.20
2022-12-26T06:08:13.413Z,2.92
2022-12-26T06:14:16.877Z,2.70
2022-12-26T06:20:21.685Z,4.10
2022-12-26T06:26:25.164Z,3.00
2022-12-26T06:32:28.599Z,4.05
2022-12-26T06:38:33.752Z,3.92
2022-12-26T06:44:37.684Z,2.80
2022-12-26T06:50:41.115Z,1.88
2022-12-26T06:56:45.930Z,2.15
2022-12-26T07:02:52.655Z,3.67
2022-12-26T07:08:56.597Z,3.35
2022-12-26T07:15:02.132Z,2.88
2022-12-26T07:21:06.773Z,2.55
2022-12-26T07:27:10.318Z,2.03
2022-12-26T07:33:15.084Z,3.53
2022-12-26T07:39:18.773Z,2.97
2022-12-26T07:45:22.296Z,3.95
2022-12-26T07:51:27.107Z,5.20
2022-12-26T07:57:48.175Z,3.90
2022-12-26T08:03:52.824Z,2.60
2022-12-26T08:09:57.898Z,2.97
2022-12-26T08:16:01.636Z,5.43
2022-12-26T08:22:05.066Z,4.68
2022-12-26T08:28:09.954Z,5.47
2022-12-26T08:34:13.485Z,3.50
2022-12-26T08:40:26.737Z,6.00
2022-12-26T08:46:41.812Z,7.72
2022-12-26T08:52:45.476Z,2.03
2022-12-26T08:58:49.082Z,2.60
2022-12-26T09:05:00.239Z,2.55
2022-12-26T09:11:04.653Z,1.63
2022-12-26T09:17:08.250Z,2.72
2022-12-26T09:23:15.434Z,5.13
2022-12-26T09:29:18.985Z,4.40
2022-12-26T09:35:22.750Z,2.75
2022-12-26T09:41:34.011Z,4.28
2022-12-26T09:47:38.514Z,6.35
2022-12-26T09:53:44.152Z,4.80
2022-12-26T09:59:50.997Z,7.45
2022-12-26T10:06:06.316Z,7.65
2022-12-26T10:12:18.822Z,6.80
2022-12-26T10:18:26.939Z,5.72
2022-12-26T10:24:34.124Z,4.43
2022-12-26T10:30:39.561Z,6.68
2022-12-26T10:36:46.075Z,3.97
2022-12-26T10:42:52.647Z,2.42
2022-12-26T10:48:56.219Z,4.15
2022-12-26T10:55:27.222Z,2.67
2022-12-26T11:01:32.582Z,5.97
2022-12-26T11:07:38.157Z,2.85
2022-12-26T11:13:47.917Z,2.75
2022-12-26T11:19:51.408Z,6.00
2022-12-26T11:25:56.169Z,12.45
2022-12-26T11:32:02.859Z,3.60
2022-12-26T11:38:08.265Z,5.00
2022-12-26T11:44:24.116Z,2.65
2022-12-26T11:50:31.082Z,2.42
2022-12-26T11:56:34.571Z,3.30
2022-12-26T12:02:38.963Z,2.90
2022-12-26T12:08:46.581Z,3.50
2022-12-26T12:14:57.327Z,3.33
2022-12-26T12:21:05.739Z,2.45
2022-12-26T12:27:13.697Z,4.30
2022-12-26T12:33:28.933Z,2.45
2022-12-26T12:39:43.215Z,2.70
2022-12-26T12:45:52.209Z,2.30
2022-12-26T12:52:00.197Z,2.88
2022-12-26T12:58:09.168Z,2.28
2022-12-26T13:04:16.884Z,3.15
2022-12-26T13:10:22.488Z,1.70
2022-12-26T13:16:27.659Z,2.97
2022-12-26T13:22:54.311Z,4.85
2022-12-26T13:29:00.586Z,2.25
2022-12-26T13:35:04.393Z,2.72
2022-12-26T13:41:31.844Z,4.35
2022-12-26T13:47:36.906Z,4.00
2022-12-26T13:53:41.751Z,3.22
2022-12-26T13:59:50.365Z,6.10
2022-12-26T14:06:14.639Z,6.80
2022-12-26T14:12:26.372Z,4.75
2022-12-26T14:18:36.721Z,6.53
2022-12-26T14:24:47.039Z,4.65
2022-12-26T14:30:55.827Z,5.32
2022-12-26T14:37:03.781Z,6.72
2022-12-26T14:43:12.191Z,5.47
2022-12-26T14:49:19.952Z,5.55
2022-12-26T14:55:48.136Z,5.28
2022-12-26T15:02:02.380Z,1.67
2022-12-26T15:08:22.731Z,3.72
2022-12-26T15:14:43.859Z,4.95
2022-12-26T15:21:04.080Z,6.80
2022-12-26T15:27:25.524Z,7.15
2022-12-26T15:33:30.776Z,5.18
2022-12-26T15:39:39.211Z,4.00
2022-12-26T15:45:47.346Z,3.85
2022-12-26T15:51:56.322Z,4.07
2022-12-26T15:58:04.599Z,8.90
2022-12-26T16:04:09.853Z,8.07
2022-12-26T16:10:17.885Z,9.48
2022-12-26T16:16:30.396Z,8.02
2022-12-26T16:22:44.894Z,10.90
2022-12-26T16:28:48.492Z,12.98
2022-12-26T16:34:54.661Z,11.98
2022-12-26T16:41:00.502Z,15.38
2022-12-26T16:47:04.622Z,12.85
2022-12-26T16:53:17.351Z,12.65
2022-12-26T16:59:22.409Z,16.55
2022-12-26T17:05:27.927Z,16.80
2022-12-26T17:11:34.026Z,11.90
2022-12-26T17:17:38.372Z,11.90
2022-12-26T17:23:42.334Z,11.43
2022-12-26T17:29:51.472Z,14.95
2022-12-26T17:42:20.561Z,12.35
2022-12-26T17:48:25.855Z,10.80
2022-12-26T17:54:30.806Z,11.13
2022-12-26T18:00:35.233Z,13.73
2022-12-26T18:06:40.770Z,14.07
2022-12-26T18:12:44.209Z,12.60
2022-12-26T18:18:48.369Z,8.27
2022-12-26T18:24:53.423Z,8.38
2022-12-26T18:30:58.445Z,10.13
2022-12-26T18:37:01.907Z,7.07
2022-12-26T18:43:07.589Z,9.35
2022-12-26T18:49:11.066Z,5.57
2022-12-26T18:55:14.518Z,6.55
2022-12-26T19:01:21.031Z,7.30
2022-12-26T19:07:24.604Z,5.00
2022-12-26T19:13:28.227Z,5.45
2022-12-26T19:19:33.058Z,6.32
2022-12-26T19:25:36.659Z,6.15
2022-12-26T19:31:40.371Z,5.50
2022-12-26T19:37:45.501Z,7.10
2022-12-26T19:43:48.979Z,5.43
2022-12-26T19:49:52.473Z,7.13
2022-12-26T19:55:57.459Z,5.35
2022-12-26T20:02:01.234Z,8.20
2022-12-26T20:08:04.933Z,9.52
2022-12-26T20:14:11.067Z,9.50
2022-12-26T20:20:14.519Z,8.65
2022-12-26T20:26:18.949Z,5.57
2022-12-26T20:32:23.859Z,7.18
2022-12-26T20:38:27.308Z,8.93
2022-12-26T20:44:31.395Z,7.00
2022-12-26T20:50:36.315Z,14.60
2022-12-26T20:56:40.166Z,13.38
2022-12-26T21:02:43.757Z,7.43
2022-12-26T21:08:50.138Z,13.25
2022-12-26T21:14:53.657Z,12.02
2022-12-26T21:20:57.213Z,10.98
2022-12-26T21:27:02.011Z,10.30
2022-12-26T21:33:05.561Z,8.18
2022-12-26T21:39:10.376Z,7.72
2022-12-26T21:45:15.250Z,6.72
2022-12-26T21:51:19.686Z,8.77
2022-12-26T21:57:23.736Z,8.80
2022-12-26T22:03:45.953Z,15.57
2022-12-26T22:09:49.381Z,6.28
2022-12-26T22:16:07.541Z,8.05
2022-12-26T22:22:12.626Z,11.02
2022-12-26T22:28:23.009Z,8.43
2022-12-26T22:34:27.111Z,9.27
2022-12-26T22:40:31.994Z,8.45
2022-12-26T22:46:35.601Z,5.20
2022-12-26T22:52:39.077Z,9.15
2022-12-26T22:58:43.905Z,4.80
2022-12-26T23:04:47.516Z,4.78
2022-12-26T23:10:52.057Z,5.70
2022-12-26T23:16:59.228Z,5.25
2022-12-26T23:23:02.941Z,2.45
2022-12-26T23:29:24.214Z,1.60
2022-12-26T23:35:29.341Z,5.95
2022-12-26T23:41:32.887Z,7.20
2022-12-26T23:47:38.035Z,9.02
2022-12-26T23:53:42.824Z,3.92
2022-12-26T23:59:46.259Z,10.60
